Time;durP1;ratioP1;P1;durP2;ratioP2;P2;SDS_P1;SDS_P2;PMS_P1;PMS_P2;Temp;Humidity;BMP_temperature;BMP_pressure;BME280_temperature;BME280_humidity;BME280_pressure;Samples;Min_cycle;Max_cycle;Signal;HPM_P1;HPM_P2
2023/06/24 00:01:28;;;;;;;;;0.75;0.75;;;;;;;;5017746;28;45498;-84
2023/06/24 00:03:54;;;;;;;;;1.00;1.00;;;;;;;;5017103;28;45471;-84
2023/06/24 00:06:19;;;;;;;;;1.25;0.75;;;;;;;;5016541;28;47092;-84
2023/06/24 00:08:45;;;;;;;;;1.00;1.00;;;;;;;;5016966;28;45368;-83
2023/06/24 00:11:10;;;;;;;;;2.00;0.50;;;;;;;;4999828;28;45434;-83
2023/06/24 00:13:36;;;;;;;;;1.33;1.33;;;;;;;;5010695;28;45387;-84
2023/06/24 00:16:01;;;;;;;;;0.75;0.75;;;;;;;;4997622;28;46559;-84
2023/06/24 00:18:29;;;;;;;;;2.67;1.67;;;;;;;;4997445;28;45353;-84
2023/06/24 00:20:54;;;;;;;;;2.00;1.25;;;;;;;;5001771;28;45362;-84
2023/06/24 00:23:24;;;;;;;;;1.00;0.75;;;;;;;;5017431;28;45334;-84
2023/06/24 00:25:50;;;;;;;;;4.75;1.00;;;;;;;;5017332;28;46533;-84
2023/06/24 00:28:15;;;;;;;;;3.25;2.00;;;;;;;;5011388;28;45351;-84
2023/06/24 00:30:40;;;;;;;;;1.00;1.00;;;;;;;;4997658;28;45356;-84
2023/06/24 00:33:09;;;;;;;;;1.67;0.67;;;;;;;;4998445;28;45276;-82
2023/06/24 00:35:34;;;;;;;;;2.50;1.75;;;;;;;;4997475;28;46411;-84
2023/06/24 00:37:59;;;;;;;;;1.67;0.67;;;;;;;;5010238;28;45532;-83
2023/06/24 00:40:24;;;;;;;;;3.67;1.67;;;;;;;;5017582;28;45274;-84
2023/06/24 00:42:49;;;;;;;;;1.67;1.00;;;;;;;;5006446;28;45311;-84
2023/06/24 00:45:17;;;;;;;;;3.25;0.75;;;;;;;;5036918;28;45942;-83
2023/06/24 00:47:43;;;;;;;;;1.75;1.00;;;;;;;;5036681;28;45390;-84
2023/06/24 00:50:08;;;;;;;;;1.75;1.75;;;;;;;;5037309;28;45421;-84
2023/06/24 00:52:36;;;;;;;;;2.25;1.00;;;;;;;;5025072;28;45539;-83
2023/06/24 00:55:02;;;;;;;;;1.00;1.00;;;;;;;;5016873;28;45621;-84
2023/06/24 00:57:28;;;;;;;;;3.00;1.75;;;;;;;;5016458;28;45366;-83
2023/06/24 00:59:54;;;;;;;;;1.25;1.25;;;;;;;;5014468;28;45398;-84
2023/06/24 01:02:20;;;;;;;;;3.00;1.00;;;;;;;;5002321;28;45537;-84
2023/06/24 01:04:47;;;;;;;;;2.50;1.00;;;;;;;;5016899;28;46370;-85
2023/06/24 01:07:14;;;;;;;;;0.75;0.75;;;;;;;;5016710;28;45695;-84
2023/06/24 01:09:39;;;;;;;;;0.00;0.00;;;;;;;;5010941;28;45480;-84
2023/06/24 01:12:06;;;;;;;;;0.75;0.75;;;;;;;;5022912;28;45382;-85
2023/06/24 01:14:31;;;;;;;;;2.75;1.75;;;;;;;;5021954;28;47608;-84
2023/06/24 01:17:06;;;;;;;;;1.50;0.50;;;;;;;;5035829;28;45384;-84
2023/06/24 01:19:49;;;;;;;;;1.75;0.75;;;;;;;;5001812;28;45360;-83
2023/06/24 01:22:20;;;;;;;;;0.50;0.50;;;;;;;;5013657;28;45556;-83
2023/06/24 01:24:52;;;;;;;;;1.50;0.50;;;;;;;;4998751;28;47261;-83
2023/06/24 01:27:44;;;;;;;;;1.50;1.00;;;;;;;;5016430;28;45298;-84
2023/06/24 01:30:25;;;;;;;;;0.50;0.50;;;;;;;;4996630;28;45496;-83
2023/06/24 01:32:52;;;;;;;;;1.00;1.00;;;;;;;;5006791;28;45390;-82
2023/06/24 01:35:21;;;;;;;;;0.50;0.50;;;;;;;;5016366;28;47215;-84
2023/06/24 01:37:51;;;;;;;;;1.25;0.50;;;;;;;;5016326;28;45843;-84
2023/06/24 01:40:22;;;;;;;;;1.25;1.25;;;;;;;;5016233;28;45464;-83
2023/06/24 01:42:48;;;;;;;;;1.50;1.00;;;;;;;;5016479;28;45639;-83
2023/06/24 01:45:19;;;;;;;;;2.75;1.25;;;;;;;;5014113;28;46482;-84
2023/06/24 01:47:47;;;;;;;;;3.00;1.00;;;;;;;;5012931;28;45438;-83
2023/06/24 01:50:13;;;;;;;;;0.50;0.50;;;;;;;;4978950;28;45442;-84
2023/06/24 01:52:41;;;;;;;;;0.50;0.50;;;;;;;;4996533;28;45402;-83
2023/06/24 01:55:08;;;;;;;;;2.50;1.00;;;;;;;;4996273;28;45495;-83
2023/06/24 01:57:34;;;;;;;;;1.00;1.00;;;;;;;;4996008;28;45311;-83
2023/06/24 02:00:00;;;;;;;;;1.25;1.00;;;;;;;;4996111;28;45450;-83
2023/06/24 02:02:27;;;;;;;;;0.50;0.50;;;;;;;;4983532;28;45625;-83
2023/06/24 02:04:54;;;;;;;;;2.00;1.50;;;;;;;;5015973;28;46640;-83
2023/06/24 02:07:20;;;;;;;;;4.00;2.00;;;;;;;;5015361;28;45583;-83
2023/06/24 02:09:45;;;;;;;;;1.00;1.00;;;;;;;;5009540;28;45481;-83
2023/06/24 02:12:11;;;;;;;;;3.00;2.00;;;;;;;;4990069;28;45471;-83
2023/06/24 02:14:37;;;;;;;;;1.50;1.00;;;;;;;;5013465;28;46266;-83
2023/06/24 02:17:04;;;;;;;;;1.50;1.25;;;;;;;;5015811;28;45378;-83
2023/06/24 02:19:30;;;;;;;;;2.00;1.00;;;;;;;;5015761;28;45367;-83
2023/06/24 02:21:59;;;;;;;;;4.50;1.00;;;;;;;;5001353;28;45489;-82
2023/06/24 02:24:26;;;;;;;;;2.75;2.00;;;;;;;;5013744;28;46131;-83
2023/06/24 02:26:52;;;;;;;;;4.50;2.00;;;;;;;;5015679;28;45591;-82
2023/06/24 02:29:18;;;;;;;;;4.50;2.00;;;;;;;;5015087;28;45373;-82
2023/06/24 02:31:43;;;;;;;;;3.00;2.00;;;;;;;;5018837;28;45358;-83
2023/06/24 02:34:08;;;;;;;;;4.33;1.33;;;;;;;;5004048;28;45442;-83
2023/06/24 02:36:33;;;;;;;;;2.00;2.00;;;;;;;;4999127;28;45447;-82
2023/06/24 02:38:59;;;;;;;;;3.00;1.33;;;;;;;;5002869;28;45433;-84
2023/06/24 02:41:24;;;;;;;;;0.00;0.00;;;;;;;;5019113;28;45436;-83
2023/06/24 02:43:49;;;;;;;;;3.00;2.00;;;;;;;;5018933;28;46189;-83
2023/06/24 02:46:15;;;;;;;;;4.00;3.67;;;;;;;;4999008;28;45420;-82
2023/06/24 02:48:42;;;;;;;;;6.00;3.50;;;;;;;;5019080;28;45333;-83
2023/06/24 02:51:09;;;;;;;;;2.00;2.00;;;;;;;;5018971;28;45650;-82
2023/06/24 02:53:35;;;;;;;;;3.00;1.75;;;;;;;;5015546;28;47219;-83
2023/06/24 02:56:00;;;;;;;;;2.00;1.75;;;;;;;;4981305;28;45328;-82
2023/06/24 02:58:31;;;;;;;;;2.00;2.00;;;;;;;;4980808;28;45407;-83
2023/06/24 03:00:58;;;;;;;;;3.00;3.00;;;;;;;;4999084;28;45717;-82
2023/06/24 03:03:24;;;;;;;;;3.25;3.00;;;;;;;;4998682;28;46688;-82
2023/06/24 03:05:50;;;;;;;;;5.00;2.50;;;;;;;;4998918;28;45334;-82
2023/06/24 03:08:15;;;;;;;;;3.50;3.00;;;;;;;;4998937;28;45291;-83
2023/06/24 03:10:40;;;;;;;;;6.00;3.75;;;;;;;;4998916;28;45357;-83
2023/06/24 03:13:05;;;;;;;;;2.33;2.00;;;;;;;;5002919;28;45434;-82
2023/06/24 03:15:31;;;;;;;;;5.00;2.33;;;;;;;;5018191;28;45457;-83
2023/06/24 03:17:56;;;;;;;;;4.00;2.50;;;;;;;;5018658;28;45365;-85
2023/06/24 03:20:22;;;;;;;;;3.00;2.00;;;;;;;;5018774;28;45358;-83
2023/06/24 03:22:47;;;;;;;;;2.33;2.00;;;;;;;;5009026;28;45755;-81
2023/06/24 03:25:12;;;;;;;;;3.00;3.00;;;;;;;;4998623;28;45445;-82
2023/06/24 03:27:37;;;;;;;;;3.00;2.00;;;;;;;;4998281;28;45295;-82
2023/06/24 03:30:02;;;;;;;;;3.67;3.00;;;;;;;;4980858;28;45536;-82
2023/06/24 03:32:28;;;;;;;;;3.00;3.00;;;;;;;;4998386;28;47266;-83
2023/06/24 03:34:53;;;;;;;;;2.67;2.67;;;;;;;;4980884;28;45474;-84
2023/06/24 03:37:18;;;;;;;;;1.67;1.67;;;;;;;;4990453;28;45419;-82
2023/06/24 03:39:43;;;;;;;;;3.67;1.00;;;;;;;;5018443;28;45452;-82
2023/06/24 03:42:08;;;;;;;;;4.00;3.00;;;;;;;;4998738;28;46432;-81
2023/06/24 03:44:34;;;;;;;;;4.33;3.00;;;;;;;;4998476;28;45581;-82
2023/06/24 03:46:59;;;;;;;;;3.00;2.00;;;;;;;;5002189;28;45446;-83
2023/06/24 03:49:24;;;;;;;;;3.00;2.00;;;;;;;;5018144;28;45283;-84
2023/06/24 03:51:49;;;;;;;;;6.00;2.00;;;;;;;;4999694;28;45405;-82
2023/06/24 03:54:14;;;;;;;;;3.67;2.00;;;;;;;;4998414;28;45350;-81
2023/06/24 03:56:40;;;;;;;;;1.75;1.75;;;;;;;;4997781;28;45393;-82
2023/06/24 03:59:05;;;;;;;;;3.00;3.00;;;;;;;;4998159;28;45598;-82
2023/06/24 04:01:31;;;;;;;;;3.00;2.50;;;;;;;;4997781;28;47074;-82
2023/06/24 04:03:57;;;;;;;;;2.50;2.25;;;;;;;;4998030;28;45307;-82
2023/06/24 04:06:22;;;;;;;;;5.75;3.50;;;;;;;;4998088;28;45407;-82
2023/06/24 04:08:48;;;;;;;;;2.67;2.67;;;;;;;;5005578;28;45750;-82
2023/06/24 04:11:14;;;;;;;;;3.25;2.25;;;;;;;;5014853;28;46488;-82
2023/06/24 04:13:39;;;;;;;;;4.50;2.00;;;;;;;;5007980;28;45446;-80
2023/06/24 04:16:04;;;;;;;;;3.67;1.67;;;;;;;;4999205;28;45334;-81
2023/06/24 04:18:29;;;;;;;;;4.00;2.00;;;;;;;;4997773;28;45434;-82
2023/06/24 04:20:55;;;;;;;;;3.00;3.00;;;;;;;;4997539;28;46458;-80
2023/06/24 04:23:20;;;;;;;;;4.75;3.00;;;;;;;;5008178;28;45301;-81
2023/06/24 04:25:45;;;;;;;;;5.00;4.00;;;;;;;;4998802;28;45393;-81
2023/06/24 04:28:10;;;;;;;;;2.67;1.33;;;;;;;;5016442;28;45477;-82
2023/06/24 04:30:35;;;;;;;;;6.00;3.00;;;;;;;;5017169;28;46506;-80
2023/06/24 04:33:01;;;;;;;;;6.25;4.00;;;;;;;;5017127;28;45414;-82
2023/06/24 04:35:26;;;;;;;;;3.00;3.00;;;;;;;;4980147;28;45490;-83
2023/06/24 04:37:52;;;;;;;;;5.00;3.50;;;;;;;;5015456;28;45515;-81
2023/06/24 04:40:17;;;;;;;;;4.50;3.00;;;;;;;;5016828;28;46356;-81
2023/06/24 04:42:42;;;;;;;;;2.25;2.25;;;;;;;;4998114;28;45307;-82
2023/06/24 04:45:08;;;;;;;;;2.33;2.33;;;;;;;;5017664;28;45310;-82
2023/06/24 04:47:33;;;;;;;;;6.75;2.25;;;;;;;;5016598;28;45384;-81
2023/06/24 04:49:58;;;;;;;;;1.50;1.50;;;;;;;;5016880;28;46311;-82
2023/06/24 04:52:24;;;;;;;;;4.67;3.67;;;;;;;;4999023;28;45234;-81
2023/06/24 04:54:49;;;;;;;;;3.00;2.33;;;;;;;;5014228;28;45306;-81
2023/06/24 04:57:25;;;;;;;;;3.50;3.00;;;;;;;;4996986;28;45492;-81
2023/06/24 04:59:51;;;;;;;;;2.75;2.75;;;;;;;;5013824;28;45718;-81
2023/06/24 05:02:16;;;;;;;;;3.00;3.00;;;;;;;;5017011;28;45357;-82
2023/06/24 05:04:41;;;;;;;;;3.00;3.00;;;;;;;;5016227;28;45468;-81
2023/06/24 05:07:06;;;;;;;;;3.00;3.00;;;;;;;;5014764;28;45366;-81
2023/06/24 05:09:31;;;;;;;;;3.00;2.00;;;;;;;;4994622;28;46140;-83
2023/06/24 05:11:57;;;;;;;;;3.33;1.00;;;;;;;;5006086;28;45470;-83
2023/06/24 05:14:22;;;;;;;;;3.33;2.67;;;;;;;;4996147;28;45460;-84
2023/06/24 05:16:47;;;;;;;;;6.67;3.67;;;;;;;;5005760;28;45404;-83
2023/06/24 05:19:12;;;;;;;;;4.00;4.00;;;;;;;;5000584;28;45576;-84
2023/06/24 05:21:37;;;;;;;;;3.00;2.00;;;;;;;;5016074;28;45865;-83
2023/06/24 05:24:03;;;;;;;;;2.67;2.00;;;;;;;;5008930;28;45312;-83
2023/06/24 05:26:28;;;;;;;;;1.50;1.50;;;;;;;;4991704;28;45264;-83
2023/06/24 05:28:53;;;;;;;;;4.50;3.00;;;;;;;;5015759;28;46302;-84
2023/06/24 05:31:18;;;;;;;;;5.67;3.00;;;;;;;;5014669;28;45342;-84
2023/06/24 05:33:44;;;;;;;;;4.00;1.00;;;;;;;;4996784;28;45283;-83
2023/06/24 05:36:09;;;;;;;;;4.00;3.00;;;;;;;;4988382;28;45380;-85
2023/06/24 05:38:34;;;;;;;;;3.67;2.00;;;;;;;;4995781;28;48488;-85
2023/06/24 05:41:02;;;;;;;;;5.67;3.00;;;;;;;;4996329;28;45334;-84
2023/06/24 05:43:27;;;;;;;;;3.00;3.00;;;;;;;;5007109;28;45419;-83
2023/06/24 05:45:52;;;;;;;;;4.67;3.00;;;;;;;;5016410;28;45370;-83
2023/06/24 05:48:18;;;;;;;;;3.00;1.67;;;;;;;;5015588;28;46589;-82
2023/06/24 05:50:43;;;;;;;;;4.67;3.33;;;;;;;;5015700;28;45409;-83
2023/06/24 05:53:08;;;;;;;;;6.00;3.00;;;;;;;;5015385;28;45520;-84
2023/06/24 05:55:33;;;;;;;;;2.00;2.00;;;;;;;;4997194;28;45398;-83
2023/06/24 05:57:58;;;;;;;;;1.33;1.33;;;;;;;;5011406;28;45881;-85
2023/06/24 06:00:24;;;;;;;;;2.00;2.00;;;;;;;;5014390;28;45477;-83
2023/06/24 06:02:49;;;;;;;;;6.67;2.33;;;;;;;;5015096;28;45718;-83
2023/06/24 06:05:14;;;;;;;;;3.75;2.25;;;;;;;;5014662;28;45422;-81
2023/06/24 06:07:39;;;;;;;;;3.00;2.00;;;;;;;;5013110;28;47166;-83
2023/06/24 06:10:06;;;;;;;;;3.50;1.00;;;;;;;;4983122;28;45705;-83
2023/06/24 06:12:31;;;;;;;;;2.25;1.00;;;;;;;;4996329;28;45278;-83
2023/06/24 06:14:56;;;;;;;;;2.00;1.75;;;;;;;;5008197;28;45624;-82
2023/06/24 06:17:25;;;;;;;;;2.00;1.00;;;;;;;;5015547;28;46452;-84
2023/06/24 06:19:50;;;;;;;;;1.00;1.00;;;;;;;;5015443;28;45465;-83
2023/06/24 06:22:15;;;;;;;;;2.00;2.00;;;;;;;;5015894;28;45235;-82
2023/06/24 06:24:41;;;;;;;;;2.00;1.00;;;;;;;;5015580;28;45292;-83
2023/06/24 06:27:10;;;;;;;;;2.00;1.25;;;;;;;;5014757;28;45552;-81
2023/06/24 06:29:35;;;;;;;;;2.00;1.75;;;;;;;;5015644;28;45686;-83
2023/06/24 06:32:00;;;;;;;;;2.00;2.00;;;;;;;;4996913;28;45469;-84
2023/06/24 06:34:25;;;;;;;;;1.67;1.67;;;;;;;;5002926;28;45254;-83
2023/06/24 06:36:51;;;;;;;;;2.00;2.00;;;;;;;;5004233;28;45329;-84
2023/06/24 06:39:16;;;;;;;;;2.00;2.00;;;;;;;;5002541;28;45496;-83
2023/06/24 06:41:41;;;;;;;;;3.33;1.67;;;;;;;;5008927;28;45484;-83
2023/06/24 06:44:06;;;;;;;;;6.00;2.00;;;;;;;;5015631;28;45286;-83
2023/06/24 06:46:32;;;;;;;;;3.00;2.00;;;;;;;;5011365;28;46228;-84
2023/06/24 06:48:59;;;;;;;;;1.50;1.00;;;;;;;;5008524;28;45492;-83
2023/06/24 06:51:25;;;;;;;;;4.75;1.25;;;;;;;;4995668;28;45478;-83
2023/06/24 06:53:50;;;;;;;;;2.75;1.00;;;;;;;;4995400;28;45557;-82
2023/06/24 06:56:16;;;;;;;;;3.00;1.00;;;;;;;;4997592;28;47027;-86
2023/06/24 06:58:41;;;;;;;;;1.25;1.25;;;;;;;;5006816;28;45351;-83
2023/06/24 07:01:06;;;;;;;;;2.33;1.00;;;;;;;;5004017;28;45377;-84
2023/06/24 07:03:32;;;;;;;;;3.00;1.00;;;;;;;;5011068;28;45509;-83
2023/06/24 07:05:57;;;;;;;;;2.00;2.00;;;;;;;;4998818;28;46608;-86
2023/06/24 07:08:22;;;;;;;;;1.33;1.00;;;;;;;;4978566;28;45497;-86
2023/06/24 07:10:47;;;;;;;;;1.00;0.00;;;;;;;;5004256;28;45481;-87
2023/06/24 07:13:12;;;;;;;;;3.00;1.00;;;;;;;;4995953;28;45608;-87
2023/06/24 07:15:38;;;;;;;;;3.33;1.33;;;;;;;;4996851;28;48153;-86
2023/06/24 07:18:03;;;;;;;;;2.00;0.33;;;;;;;;5019044;28;45623;-85
2023/06/24 07:20:28;;;;;;;;;1.00;1.00;;;;;;;;5038614;28;45415;-85
2023/06/24 07:22:53;;;;;;;;;0.33;0.33;;;;;;;;5020665;28;45484;-84
2023/06/24 07:25:18;;;;;;;;;0.33;0.33;;;;;;;;5015747;28;47105;-86
2023/06/24 07:27:43;;;;;;;;;2.33;1.00;;;;;;;;5018310;28;45431;-85
2023/06/24 07:30:09;;;;;;;;;1.00;1.00;;;;;;;;5016899;28;45413;-84
2023/06/24 07:32:34;;;;;;;;;2.25;2.00;;;;;;;;5012213;28;45551;-85
2023/06/24 07:34:59;;;;;;;;;0.33;0.33;;;;;;;;5017289;28;46215;-83
2023/06/24 07:37:24;;;;;;;;;0.00;0.00;;;;;;;;5014901;28;45469;-88
2023/06/24 07:39:50;;;;;;;;;0.67;0.67;;;;;;;;5009107;28;45431;-80
2023/06/24 07:42:18;;;;;;;;;1.33;1.00;;;;;;;;5015274;28;45567;-83
2023/06/24 07:44:50;;;;;;;;;3.75;1.50;;;;;;;;5011523;28;47022;-84
2023/06/24 07:47:16;;;;;;;;;5.00;1.00;;;;;;;;5006162;28;45325;-85
2023/06/24 07:49:42;;;;;;;;;6.00;2.00;;;;;;;;4998268;28;45287;-89
2023/06/24 07:52:07;;;;;;;;;2.33;1.00;;;;;;;;5010592;28;45545;-83
2023/06/24 07:54:33;;;;;;;;;2.50;2.00;;;;;;;;5018021;28;47312;-84
2023/06/24 07:56:58;;;;;;;;;1.00;1.00;;;;;;;;5026171;28;45615;-84
2023/06/24 07:59:24;;;;;;;;;3.33;1.00;;;;;;;;5018050;28;45422;-87
2023/06/24 08:01:50;;;;;;;;;1.00;1.00;;;;;;;;5017274;28;45364;-84
2023/06/24 08:04:15;;;;;;;;;3.00;1.00;;;;;;;;5017607;28;46342;-85
2023/06/24 08:06:41;;;;;;;;;0.75;0.75;;;;;;;;5016948;28;45559;-85
2023/06/24 08:09:06;;;;;;;;;2.00;1.33;;;;;;;;5018056;28;45359;-86
2023/06/24 08:11:31;;;;;;;;;2.33;1.33;;;;;;;;5016546;28;45437;-85
2023/06/24 08:13:56;;;;;;;;;3.00;2.00;;;;;;;;5016628;28;46173;-85
2023/06/24 08:16:21;;;;;;;;;1.67;1.00;;;;;;;;5017196;28;45619;-85
2023/06/24 08:18:47;;;;;;;;;0.67;0.67;;;;;;;;5016477;28;45430;-85
2023/06/24 08:21:12;;;;;;;;;1.75;1.00;;;;;;;;5017430;28;45339;-85
2023/06/24 08:23:37;;;;;;;;;0.00;0.00;;;;;;;;5017229;28;46994;-85
2023/06/24 08:26:02;;;;;;;;;1.67;1.00;;;;;;;;5017224;28;45479;-85
2023/06/24 08:28:28;;;;;;;;;0.00;0.00;;;;;;;;5015651;28;45381;-85
2023/06/24 08:30:53;;;;;;;;;0.00;0.00;;;;;;;;4994428;28;45457;-87
2023/06/24 08:33:18;;;;;;;;;1.00;1.00;;;;;;;;5019515;28;45576;-86
2023/06/24 08:35:43;;;;;;;;;2.00;0.50;;;;;;;;5016947;28;45511;-86
2023/06/24 08:38:09;;;;;;;;;1.00;0.00;;;;;;;;5016794;28;45540;-85
2023/06/24 08:40:34;;;;;;;;;0.00;0.00;;;;;;;;5016865;28;45415;-84
2023/06/24 08:42:59;;;;;;;;;2.00;2.00;;;;;;;;5009727;28;46201;-85
2023/06/24 08:45:24;;;;;;;;;2.00;1.00;;;;;;;;5014737;28;45380;-85
2023/06/24 08:47:50;;;;;;;;;0.00;0.00;;;;;;;;5015260;28;45397;-84
2023/06/24 08:50:16;;;;;;;;;0.50;0.50;;;;;;;;5015741;28;45369;-85
2023/06/24 08:52:50;;;;;;;;;1.00;0.25;;;;;;;;5014321;28;46156;-83
2023/06/24 08:55:16;;;;;;;;;0.50;0.50;;;;;;;;5012431;28;45463;-85
2023/06/24 08:57:41;;;;;;;;;2.00;0.50;;;;;;;;5014460;28;45636;-86
2023/06/24 09:00:10;;;;;;;;;4.67;1.00;;;;;;;;5012832;28;46516;-85
2023/06/24 09:02:37;;;;;;;;;1.00;0.75;;;;;;;;5015054;28;46452;-87
2023/06/24 09:05:03;;;;;;;;;1.75;0.50;;;;;;;;5015261;28;45471;-85
2023/06/24 09:07:29;;;;;;;;;2.50;0.75;;;;;;;;5014325;28;45430;-86
2023/06/24 09:09:54;;;;;;;;;2.50;2.00;;;;;;;;5011236;28;45414;-87
2023/06/24 09:12:20;;;;;;;;;1.00;0.50;;;;;;;;5014868;28;47112;-85
2023/06/24 09:14:48;;;;;;;;;3.67;0.67;;;;;;;;5013614;28;45310;-83
2023/06/24 09:17:14;;;;;;;;;1.50;1.00;;;;;;;;5013066;28;45457;-85
2023/06/24 09:19:39;;;;;;;;;0.00;0.00;;;;;;;;5014488;28;45609;-83
2023/06/24 09:22:05;;;;;;;;;3.00;2.00;;;;;;;;5015125;28;46222;-86
2023/06/24 09:24:31;;;;;;;;;3.25;1.00;;;;;;;;5014263;28;45445;-84
2023/06/24 09:26:59;;;;;;;;;1.00;1.00;;;;;;;;5015122;28;45323;-84
2023/06/24 09:29:28;;;;;;;;;1.00;1.00;;;;;;;;5013364;28;45687;-84
2023/06/24 09:31:54;;;;;;;;;0.75;0.75;;;;;;;;5006147;28;46698;-84
2023/06/24 09:34:20;;;;;;;;;1.00;1.00;;;;;;;;5014378;28;45606;-86
2023/06/24 09:36:50;;;;;;;;;1.00;1.00;;;;;;;;5000293;28;45459;-84
2023/06/24 09:39:16;;;;;;;;;2.00;2.00;;;;;;;;5014163;28;45562;-81
2023/06/24 09:41:42;;;;;;;;;1.67;1.67;;;;;;;;5015363;28;47190;-92
2023/06/24 09:44:08;;;;;;;;;1.00;0.00;;;;;;;;5016105;28;45410;-90
2023/06/24 09:46:36;;;;;;;;;3.00;1.00;;;;;;;;5015295;28;45414;-88
2023/06/24 09:49:01;;;;;;;;;3.50;1.00;;;;;;;;5008101;28;45661;-89
2023/06/24 09:51:26;;;;;;;;;4.00;1.00;;;;;;;;5011811;28;46277;-87
2023/06/24 09:53:54;;;;;;;;;4.25;2.00;;;;;;;;5009931;28;45539;-88
2023/06/24 09:56:20;;;;;;;;;1.25;1.25;;;;;;;;5011644;28;45406;-90
2023/06/24 09:58:46;;;;;;;;;3.00;2.25;;;;;;;;5014905;28;45664;-88
2023/06/24 10:01:12;;;;;;;;;2.00;2.00;;;;;;;;5014246;28;47160;-88
2023/06/24 10:03:38;;;;;;;;;2.00;2.00;;;;;;;;4994967;28;45663;-88
2023/06/24 10:06:04;;;;;;;;;1.00;1.00;;;;;;;;4996627;28;45482;-87
2023/06/24 10:08:30;;;;;;;;;2.25;1.75;;;;;;;;5012713;28;45507;-87
2023/06/24 10:10:56;;;;;;;;;2.00;2.00;;;;;;;;5013914;28;46549;-85
2023/06/24 10:13:21;;;;;;;;;2.50;1.00;;;;;;;;5012697;28;45477;-89
2023/06/24 10:15:46;;;;;;;;;1.00;1.00;;;;;;;;5013576;28;45707;-91
2023/06/24 10:18:30;;;;;;;;;3.00;2.00;;;;;;;;5016957;28;45581;-91
2023/06/24 10:20:55;;;;;;;;;3.00;2.00;;;;;;;;5014199;28;45353;-93
2023/06/24 10:23:21;;;;;;;;;2.33;1.67;;;;;;;;5013725;28;45501;-87
2023/06/24 10:25:47;;;;;;;;;2.00;1.00;;;;;;;;5004258;28;45619;-86
2023/06/24 10:28:12;;;;;;;;;5.00;2.00;;;;;;;;5013659;28;45615;-81
2023/06/24 10:30:38;;;;;;;;;3.33;1.00;;;;;;;;5013026;28;45617;-81
2023/06/24 10:33:03;;;;;;;;;3.00;2.00;;;;;;;;5013366;28;45435;-82
2023/06/24 10:35:31;;;;;;;;;1.33;1.33;;;;;;;;5013504;28;45446;-79
2023/06/24 10:37:57;;;;;;;;;3.75;1.50;;;;;;;;5010785;28;45310;-81
2023/06/24 10:40:35;;;;;;;;;2.75;1.50;;;;;;;;5008539;28;45561;-81
2023/06/24 10:43:00;;;;;;;;;5.25;3.75;;;;;;;;5013555;28;45354;-82
2023/06/24 10:45:26;;;;;;;;;3.00;2.00;;;;;;;;5013373;28;45491;-82
2023/06/24 10:47:59;;;;;;;;;2.00;1.00;;;;;;;;5013208;28;45599;-80
2023/06/24 10:50:24;;;;;;;;;3.00;1.75;;;;;;;;5013586;28;46537;-81
2023/06/24 10:52:55;;;;;;;;;1.00;1.00;;;;;;;;5015898;28;45402;-81
2023/06/24 10:55:21;;;;;;;;;1.25;1.00;;;;;;;;5016699;28;45381;-81
2023/06/24 10:57:46;;;;;;;;;3.00;1.50;;;;;;;;5009536;28;45671;-81
2023/06/24 11:00:13;;;;;;;;;5.00;2.75;;;;;;;;5015274;28;45444;-81
2023/06/24 11:02:39;;;;;;;;;1.25;1.25;;;;;;;;5015503;28;45596;-80
2023/06/24 11:05:04;;;;;;;;;2.00;2.00;;;;;;;;5016657;28;45422;-83
2023/06/24 11:07:31;;;;;;;;;3.00;3.00;;;;;;;;5016110;28;46506;-83
2023/06/24 11:09:58;;;;;;;;;4.00;3.00;;;;;;;;5015230;28;47303;-82
2023/06/24 11:12:34;;;;;;;;;2.00;2.00;;;;;;;;5016004;28;45828;-81
2023/06/24 11:15:01;;;;;;;;;4.25;3.00;;;;;;;;5016421;28;45377;-81
2023/06/24 11:17:27;;;;;;;;;2.00;2.00;;;;;;;;5015910;28;45809;-82
2023/06/24 11:19:53;;;;;;;;;5.50;2.75;;;;;;;;5016166;28;46573;-83
2023/06/24 11:22:18;;;;;;;;;2.00;2.00;;;;;;;;5012951;28;45464;-83
2023/06/24 11:24:43;;;;;;;;;3.00;1.33;;;;;;;;5016764;28;45460;-82
2023/06/24 11:27:08;;;;;;;;;4.33;3.00;;;;;;;;5016095;28;45428;-83
2023/06/24 11:29:34;;;;;;;;;4.67;2.33;;;;;;;;5016469;28;46359;-83
2023/06/24 11:32:00;;;;;;;;;4.00;1.75;;;;;;;;4997380;28;46874;-83
2023/06/24 11:34:26;;;;;;;;;3.75;0.50;;;;;;;;5016304;28;45539;-83
2023/06/24 11:36:51;;;;;;;;;2.25;2.25;;;;;;;;5016045;28;45409;-82
2023/06/24 11:39:25;;;;;;;;;2.67;1.67;;;;;;;;5013814;28;47257;-84
2023/06/24 11:41:51;;;;;;;;;2.25;1.25;;;;;;;;5020408;28;45338;-85
2023/06/24 11:44:17;;;;;;;;;3.75;2.00;;;;;;;;5016254;28;45374;-84
2023/06/24 11:46:43;;;;;;;;;2.75;1.75;;;;;;;;5016394;28;45346;-83
2023/06/24 11:49:08;;;;;;;;;3.50;1.50;;;;;;;;5012283;28;46181;-84
2023/06/24 11:51:34;;;;;;;;;2.50;2.00;;;;;;;;5016458;28;45479;-83
2023/06/24 11:54:01;;;;;;;;;1.75;1.75;;;;;;;;5015377;28;45414;-83
2023/06/24 11:56:36;;;;;;;;;2.75;2.25;;;;;;;;5016374;28;45445;-85
2023/06/24 11:59:03;;;;;;;;;0.00;0.00;;;;;;;;5015732;28;45424;-84
2023/06/24 12:01:31;;;;;;;;;1.00;1.00;;;;;;;;5016090;28;45909;-83
2023/06/24 12:03:57;;;;;;;;;1.75;1.75;;;;;;;;5015113;28;45291;-85
2023/06/24 12:06:22;;;;;;;;;4.00;2.33;;;;;;;;5008338;28;45528;-83
2023/06/24 12:08:47;;;;;;;;;1.33;1.33;;;;;;;;5015269;28;47238;-83
2023/06/24 12:11:12;;;;;;;;;0.67;0.67;;;;;;;;5015850;28;45462;-83
2023/06/24 12:13:37;;;;;;;;;2.00;1.00;;;;;;;;5016349;28;45388;-82
2023/06/24 12:16:03;;;;;;;;;3.00;2.00;;;;;;;;5015378;28;45608;-83
2023/06/24 12:18:28;;;;;;;;;2.00;0.33;;;;;;;;5016010;28;45424;-82
2023/06/24 12:20:53;;;;;;;;;3.00;1.00;;;;;;;;5015162;28;45739;-83
2023/06/24 12:23:18;;;;;;;;;3.00;1.33;;;;;;;;5014028;28;45441;-82
2023/06/24 12:25:43;;;;;;;;;4.00;2.33;;;;;;;;5015648;28;45420;-82
2023/06/24 12:28:08;;;;;;;;;2.67;1.67;;;;;;;;5015625;28;47037;-84
2023/06/24 12:30:34;;;;;;;;;4.67;2.00;;;;;;;;4997562;28;45492;-82
2023/06/24 12:33:00;;;;;;;;;2.00;1.00;;;;;;;;5015662;28;45519;-82
2023/06/24 12:35:25;;;;;;;;;5.00;2.00;;;;;;;;5016131;28;45564;-81
2023/06/24 12:37:50;;;;;;;;;2.00;0.00;;;;;;;;5012556;28;47358;-83
2023/06/24 12:40:16;;;;;;;;;2.00;1.33;;;;;;;;5008944;28;45479;-83
2023/06/24 12:42:41;;;;;;;;;1.67;1.00;;;;;;;;5016517;28;45566;-82
2023/06/24 12:45:06;;;;;;;;;1.67;1.00;;;;;;;;5016357;28;45737;-81
2023/06/24 12:47:32;;;;;;;;;0.25;0.00;;;;;;;;5014849;28;46480;-81
2023/06/24 12:49:57;;;;;;;;;1.00;1.00;;;;;;;;5015495;28;45461;-82
2023/06/24 12:52:22;;;;;;;;;2.33;1.67;;;;;;;;5014830;28;45455;-82
2023/06/24 12:54:47;;;;;;;;;2.67;0.33;;;;;;;;5012056;28;45448;-82
2023/06/24 12:57:14;;;;;;;;;1.00;1.00;;;;;;;;5015789;28;46068;-83
2023/06/24 12:59:39;;;;;;;;;3.00;1.50;;;;;;;;5015347;28;46614;-83
2023/06/24 13:02:04;;;;;;;;;0.00;0.00;;;;;;;;5015378;28;45479;-84
2023/06/24 13:04:29;;;;;;;;;2.00;2.00;;;;;;;;5015093;28;45298;-83
2023/06/24 13:06:55;;;;;;;;;3.00;2.00;;;;;;;;5014812;28;46568;-81
2023/06/24 13:09:20;;;;;;;;;4.00;1.50;;;;;;;;5014724;28;45301;-81
2023/06/24 13:11:45;;;;;;;;;2.50;1.75;;;;;;;;5015240;28;45365;-81
2023/06/24 13:14:11;;;;;;;;;3.25;1.50;;;;;;;;5010464;28;45599;-81
2023/06/24 13:16:36;;;;;;;;;3.25;2.50;;;;;;;;5014896;28;46120;-82
2023/06/24 13:19:02;;;;;;;;;2.25;1.50;;;;;;;;5014571;28;45346;-81
2023/06/24 13:21:27;;;;;;;;;0.75;0.75;;;;;;;;5015033;28;45837;-80
2023/06/24 13:23:52;;;;;;;;;1.67;1.67;;;;;;;;5014755;28;45457;-81
2023/06/24 13:26:17;;;;;;;;;1.00;1.00;;;;;;;;5014876;28;47203;-82
2023/06/24 13:28:43;;;;;;;;;2.67;1.00;;;;;;;;5015034;28;45377;-82
2023/06/24 13:31:08;;;;;;;;;1.25;1.25;;;;;;;;5010905;28;45459;-82
2023/06/24 13:33:33;;;;;;;;;1.00;1.00;;;;;;;;5015072;28;45410;-82
2023/06/24 13:35:59;;;;;;;;;1.67;1.00;;;;;;;;5013990;28;46328;-82
2023/06/24 13:38:24;;;;;;;;;3.00;2.00;;;;;;;;5012715;28;45852;-81
2023/06/24 13:40:49;;;;;;;;;1.00;1.00;;;;;;;;5014382;28;45426;-80
2023/06/24 13:43:15;;;;;;;;;2.00;1.00;;;;;;;;5014751;28;45370;-81
2023/06/24 13:45:40;;;;;;;;;1.00;1.00;;;;;;;;5014224;28;45523;-83
2023/06/24 13:48:05;;;;;;;;;2.00;1.00;;;;;;;;5008214;28;45418;-81
2023/06/24 13:50:30;;;;;;;;;1.00;1.00;;;;;;;;5014337;28;45425;-80
2023/06/24 13:52:55;;;;;;;;;2.00;1.00;;;;;;;;5010722;28;45471;-82
2023/06/24 13:55:22;;;;;;;;;1.00;1.00;;;;;;;;5014514;28;46506;-82
2023/06/24 13:57:47;;;;;;;;;1.00;1.00;;;;;;;;5013885;28;45494;-82
2023/06/24 14:00:13;;;;;;;;;1.00;1.00;;;;;;;;5014590;28;45255;-84
2023/06/24 14:02:38;;;;;;;;;1.25;1.25;;;;;;;;5014109;28;45370;-82
2023/06/24 14:05:04;;;;;;;;;2.00;2.00;;;;;;;;5010896;28;45378;-82
2023/06/24 14:07:29;;;;;;;;;1.00;1.00;;;;;;;;5013829;28;45346;-81
2023/06/24 14:09:54;;;;;;;;;2.00;2.00;;;;;;;;5014442;28;45471;-82
2023/06/24 14:12:19;;;;;;;;;4.50;1.75;;;;;;;;5014121;28;45363;-82
2023/06/24 14:14:44;;;;;;;;;2.67;1.00;;;;;;;;5014130;28;46290;-82
2023/06/24 14:17:12;;;;;;;;;6.00;2.33;;;;;;;;5014007;28;45469;-81
2023/06/24 14:19:38;;;;;;;;;3.00;3.00;;;;;;;;5014260;28;45307;-81
2023/06/24 14:22:03;;;;;;;;;3.00;2.50;;;;;;;;5013467;28;45515;-82
2023/06/24 14:24:28;;;;;;;;;3.50;2.50;;;;;;;;5013702;28;47034;-82
2023/06/24 14:26:54;;;;;;;;;0.00;0.00;;;;;;;;5013242;28;45448;-81
2023/06/24 14:29:19;;;;;;;;;3.33;2.00;;;;;;;;5013885;28;45412;-81
2023/06/24 14:31:44;;;;;;;;;4.50;2.00;;;;;;;;5014303;28;45372;-82
2023/06/24 14:34:09;;;;;;;;;1.33;1.00;;;;;;;;5013158;28;46339;-81
2023/06/24 14:36:35;;;;;;;;;2.67;1.33;;;;;;;;5013943;28;45448;-82